FYLZ

Luderitz Airport

Luderitz, Namibia
METAR FYLZ 170900Z AUTO 17018KT //// // ////// 35/01 Q1012
Observed Flight Rules
Oct-17 @ 09:00 UTC (3 hours ago)
Wind
170° at 18 knots
Temperatures Readings
Current 35°C / 95°F
Dewpoint 1°C / 34°F
Humidity 11%
Altimeter 29.88" Hg
Pressure 1012 hPa
Elevation 130
METAR FYLZ 170900Z AUTO 17018KT //// // ////// 35/01 Q1012
Observed Flight Rules
Oct-17 @ 09:00 UTC
(3 hours ago)
Wind
170° at 18 knots
Temperature Dewpoint
35°C / 95°F 1°C / 34°F
Humidity Altimeter Pressure
11% 29.88" Hg 1012 hPa